Highgrove, Kentucky
Current Conditions -  °F | °C
As of 7:56 AM on Saturday 25 Oct 2014 (Local Time) from KSDF Reporting Station
Overcast Overcast  
Wind Chill: 53°   Ceiling: 4100
Heat Index: 53°   Visibility: 9mi
Dew Point: 49°   Wind: 5mph
Humidity: 86%   Direction: 150°SSE
Pressure: 30.02"   Gusts: NA
Location:  37.9212°N, 85.4864°W
Report Text: KSDF 251156Z 15004KT 9SM OVC041 12/09 A3002 RMK AO2 SLP164 T01170094 10117 20089 58005
Loading
Personal Weather Stations






























Interactive Weather Map
Tropical Storm Tracking
New forecast layout! Learn more

10-Day Weather Forecast

Advertisements
Track Severe Weather on mobile